sensor_id;sensor_type;location;lat;lon;timestamp;pressure;altitude;pressure_sealevel;temperature;humidity
58295;BME280;45705;55.592;37.460;2023-01-29T00:01:06;99302.13;;;-1.63;100.00
58295;BME280;45705;55.592;37.460;2023-01-29T00:03:32;99293.16;;;-1.38;100.00
58295;BME280;45705;55.592;37.460;2023-01-29T00:05:59;99286.97;;;-1.50;100.00
58295;BME280;45705;55.592;37.460;2023-01-29T00:08:25;99284.41;;;-1.57;100.00
58295;BME280;45705;55.592;37.460;2023-01-29T00:10:51;99284.75;;;-1.23;100.00
58295;BME280;45705;55.592;37.460;2023-01-29T00:13:17;99285.75;;;-1.36;100.00
58295;BME280;45705;55.592;37.460;2023-01-29T00:15:53;99290.94;;;-1.53;100.00
58295;BME280;45705;55.592;37.460;2023-01-29T00:18:20;99282.25;;;-1.67;100.00
58295;BME280;45705;55.592;37.460;2023-01-29T00:20:45;99285.06;;;-1.62;100.00
58295;BME280;45705;55.592;37.460;2023-01-29T00:23:12;99284.59;;;-1.70;100.00
58295;BME280;45705;55.592;37.460;2023-01-29T00:25:37;99273.66;;;-1.50;100.00
58295;BME280;45705;55.592;37.460;2023-01-29T00:28:04;99281.31;;;-1.42;100.00
58295;BME280;45705;55.592;37.460;2023-01-29T00:30:29;99277.06;;;-1.62;100.00
58295;BME280;45705;55.592;37.460;2023-01-29T00:32:56;99276.72;;;-1.35;100.00
58295;BME280;45705;55.592;37.460;2023-01-29T00:35:21;99268.69;;;-1.47;100.00
58295;BME280;45705;55.592;37.460;2023-01-29T00:37:47;99267.88;;;-1.47;100.00
58295;BME280;45705;55.592;37.460;2023-01-29T00:40:14;99275.41;;;-1.44;100.00
58295;BME280;45705;55.592;37.460;2023-01-29T00:42:40;99273.38;;;-1.61;100.00
58295;BME280;45705;55.592;37.460;2023-01-29T00:45:24;99269.66;;;-1.60;100.00
58295;BME280;45705;55.592;37.460;2023-01-29T00:47:50;99263.75;;;-1.62;100.00
58295;BME280;45705;55.592;37.460;2023-01-29T00:50:16;99256.88;;;-1.39;100.00
58295;BME280;45705;55.592;37.460;2023-01-29T00:52:41;99264.25;;;-1.53;100.00
58295;BME280;45705;55.592;37.460;2023-01-29T00:55:09;99251.31;;;-1.68;100.00
58295;BME280;45705;55.592;37.460;2023-01-29T00:57:36;99256.38;;;-1.78;100.00
58295;BME280;45705;55.592;37.460;2023-01-29T01:00:08;99253.03;;;-1.43;100.00
58295;BME280;45705;55.592;37.460;2023-01-29T01:02:34;99246.16;;;-1.81;100.00
58295;BME280;45705;55.592;37.460;2023-01-29T01:05:19;99260.81;;;-1.72;100.00
58295;BME280;45705;55.592;37.460;2023-01-29T01:07:50;99269.13;;;-1.80;100.00
58295;BME280;45705;55.592;37.460;2023-01-29T01:10:27;99267.69;;;-1.64;100.00
58295;BME280;45705;55.592;37.460;2023-01-29T01:13:04;99259.47;;;-1.63;100.00
58295;BME280;45705;55.592;37.460;2023-01-29T01:15:34;99265.97;;;-1.59;100.00
58295;BME280;45705;55.592;37.460;2023-01-29T01:18:02;99260.47;;;-1.45;100.00
58295;BME280;45705;55.592;37.460;2023-01-29T01:20:32;99256.75;;;-1.44;100.00
58295;BME280;45705;55.592;37.460;2023-01-29T01:22:58;99262.06;;;-1.44;100.00
58295;BME280;45705;55.592;37.460;2023-01-29T01:25:25;99256.56;;;-1.31;100.00
58295;BME280;45705;55.592;37.460;2023-01-29T01:27:56;99263.00;;;-1.69;100.00
58295;BME280;45705;55.592;37.460;2023-01-29T01:30:23;99265.94;;;-1.70;100.00
58295;BME280;45705;55.592;37.460;2023-01-29T01:32:49;99269.03;;;-1.73;100.00
58295;BME280;45705;55.592;37.460;2023-01-29T01:35:15;99266.75;;;-1.88;100.00
58295;BME280;45705;55.592;37.460;2023-01-29T01:37:41;99275.84;;;-1.77;100.00
58295;BME280;45705;55.592;37.460;2023-01-29T01:40:15;99268.25;;;-2.11;100.00
58295;BME280;45705;55.592;37.460;2023-01-29T01:42:44;99273.88;;;-2.19;100.00
58295;BME280;45705;55.592;37.460;2023-01-29T01:45:21;99266.91;;;-2.39;100.00
58295;BME280;45705;55.592;37.460;2023-01-29T01:47:53;99260.13;;;-2.16;100.00
58295;BME280;45705;55.592;37.460;2023-01-29T01:51:14;99257.00;;;-1.94;99.11
58295;BME280;45705;55.592;37.460;2023-01-29T01:53:27;99259.06;;;-1.78;97.79
58295;BME280;45705;55.592;37.460;2023-01-29T01:56:01;99249.47;;;-2.16;98.58
58295;BME280;45705;55.592;37.460;2023-01-29T01:58:34;99251.31;;;-2.35;100.00
58295;BME280;45705;55.592;37.460;2023-01-29T02:01:03;99242.53;;;-2.17;100.00
58295;BME280;45705;55.592;37.460;2023-01-29T02:03:34;99246.66;;;-2.40;100.00
58295;BME280;45705;55.592;37.460;2023-01-29T02:06:20;99243.75;;;-2.01;100.00
58295;BME280;45705;55.592;37.460;2023-01-29T02:09:08;99218.94;;;-2.02;100.00
58295;BME280;45705;55.592;37.460;2023-01-29T02:11:54;99234.97;;;-2.20;100.00
58295;BME280;45705;55.592;37.460;2023-01-29T02:14:20;99224.16;;;-2.25;100.00
58295;BME280;45705;55.592;37.460;2023-01-29T02:16:46;99225.34;;;-2.21;100.00
58295;BME280;45705;55.592;37.460;2023-01-29T02:19:27;99215.91;;;-1.87;99.78
58295;BME280;45705;55.592;37.460;2023-01-29T02:22:15;99220.97;;;-1.97;97.94
58295;BME280;45705;55.592;37.460;2023-01-29T02:30:25;99205.63;;;-2.02;98.23
58295;BME280;45705;55.592;37.460;2023-01-29T02:32:58;99199.38;;;-1.77;97.36
58295;BME280;45705;55.592;37.460;2023-01-29T02:35:34;99203.47;;;-1.93;96.94
58295;BME280;45705;55.592;37.460;2023-01-29T02:41:13;99188.63;;;-2.01;97.00
58295;BME280;45705;55.592;37.460;2023-01-29T02:44:02;99189.25;;;-1.87;95.31
58295;BME280;45705;55.592;37.460;2023-01-29T02:46:38;99183.56;;;-1.90;94.18
58295;BME280;45705;55.592;37.460;2023-01-29T02:49:23;99178.13;;;-2.14;96.77
58295;BME280;45705;55.592;37.460;2023-01-29T02:57:12;99179.13;;;-1.96;95.94
58295;BME280;45705;55.592;37.460;2023-01-29T03:00:29;99165.47;;;-1.88;93.95
58295;BME280;45705;55.592;37.460;2023-01-29T03:02:54;99162.78;;;-1.70;93.15
58295;BME280;45705;55.592;37.460;2023-01-29T03:05:27;99170.09;;;-1.65;92.07
58295;BME280;45705;55.592;37.460;2023-01-29T03:08:00;99165.50;;;-2.19;94.76
58295;BME280;45705;55.592;37.460;2023-01-29T03:10:39;99161.06;;;-1.94;94.28
58295;BME280;45705;55.592;37.460;2023-01-29T03:15:43;99158.06;;;-1.86;94.51
58295;BME280;45705;55.592;37.460;2023-01-29T03:18:35;99150.41;;;-1.94;94.91
58295;BME280;45705;55.592;37.460;2023-01-29T03:21:17;99150.78;;;-1.91;94.91
58295;BME280;45705;55.592;37.460;2023-01-29T03:24:05;99138.25;;;-1.90;94.02
58295;BME280;45705;55.592;37.460;2023-01-29T03:26:51;99137.66;;;-1.92;93.41
58295;BME280;45705;55.592;37.460;2023-01-29T03:29:42;99126.56;;;-1.89;93.63
58295;BME280;45705;55.592;37.460;2023-01-29T03:32:45;99131.09;;;-1.90;94.08
58295;BME280;45705;55.592;37.460;2023-01-29T03:35:14;99127.84;;;-1.92;94.60
58295;BME280;45705;55.592;37.460;2023-01-29T03:37:47;99122.53;;;-1.92;94.17
58295;BME280;45705;55.592;37.460;2023-01-29T03:40:14;99126.00;;;-1.91;94.52
58295;BME280;45705;55.592;37.460;2023-01-29T03:49:11;99096.91;;;-2.23;97.04
58295;BME280;45705;55.592;37.460;2023-01-29T03:51:27;99094.66;;;-2.08;99.16
58295;BME280;45705;55.592;37.460;2023-01-29T03:54:06;99094.19;;;-2.35;99.48
58295;BME280;45705;55.592;37.460;2023-01-29T04:02:27;99068.16;;;-2.63;100.00
58295;BME280;45705;55.592;37.460;2023-01-29T04:05:04;99078.28;;;-2.53;100.00
58295;BME280;45705;55.592;37.460;2023-01-29T04:07:43;99076.25;;;-2.88;100.00
58295;BME280;45705;55.592;37.460;2023-01-29T04:10:16;99067.16;;;-2.81;100.00
58295;BME280;45705;55.592;37.460;2023-01-29T04:12:48;99073.84;;;-2.60;100.00
58295;BME280;45705;55.592;37.460;2023-01-29T04:15:16;99071.28;;;-2.36;100.00
58295;BME280;45705;55.592;37.460;2023-01-29T04:17:48;99062.56;;;-2.43;100.00
58295;BME280;45705;55.592;37.460;2023-01-29T04:20:42;99060.56;;;-2.60;100.00
58295;BME280;45705;55.592;37.460;2023-01-29T04:23:19;99066.53;;;-2.64;100.00
58295;BME280;45705;55.592;37.460;2023-01-29T04:25:51;99065.06;;;-2.79;100.00
58295;BME280;45705;55.592;37.460;2023-01-29T04:28:23;99067.34;;;-2.64;100.00
58295;BME280;45705;55.592;37.460;2023-01-29T04:31:01;99064.34;;;-2.67;100.00
58295;BME280;45705;55.592;37.460;2023-01-29T04:44:42;99052.19;;;-2.63;100.00
58295;BME280;45705;55.592;37.460;2023-01-29T04:52:18;99046.22;;;-2.16;99.46
58295;BME280;45705;55.592;37.460;2023-01-29T04:58:07;99046.59;;;-2.43;100.00
58295;BME280;45705;55.592;37.460;2023-01-29T05:00:41;99044.34;;;-2.28;100.00
58295;BME280;45705;55.592;37.460;2023-01-29T05:03:08;99041.38;;;-2.50;100.00
58295;BME280;45705;55.592;37.460;2023-01-29T05:05:38;99030.88;;;-2.33;100.00
58295;BME280;45705;55.592;37.460;2023-01-29T05:08:05;99044.81;;;-2.61;100.00
58295;BME280;45705;55.592;37.460;2023-01-29T05:10:32;99034.69;;;-2.41;100.00
58295;BME280;45705;55.592;37.460;2023-01-29T05:13:00;99034.75;;;-2.59;100.00
58295;BME280;45705;55.592;37.460;2023-01-29T05:15:34;99026.34;;;-2.93;100.00
58295;BME280;45705;55.592;37.460;2023-01-29T05:18:02;99031.97;;;-2.83;100.00
58295;BME280;45705;55.592;37.460;2023-01-29T05:20:33;99037.56;;;-2.72;100.00
58295;BME280;45705;55.592;37.460;2023-01-29T05:23:00;99034.84;;;-2.54;100.00
58295;BME280;45705;55.592;37.460;2023-01-29T05:25:28;99041.50;;;-2.45;100.00
58295;BME280;45705;55.592;37.460;2023-01-29T05:27:55;99049.66;;;-2.58;100.00
58295;BME280;45705;55.592;37.460;2023-01-29T05:30:42;99037.84;;;-2.32;100.00
58295;BME280;45705;55.592;37.460;2023-01-29T05:33:28;99034.97;;;-2.30;100.00
58295;BME280;45705;55.592;37.460;2023-01-29T05:35:54;99029.31;;;-2.22;100.00
58295;BME280;45705;55.592;37.460;2023-01-29T05:38:20;99036.22;;;-2.63;100.00
58295;BME280;45705;55.592;37.460;2023-01-29T05:40:46;99027.47;;;-2.52;100.00
58295;BME280;45705;55.592;37.460;2023-01-29T05:43:21;99042.00;;;-2.66;100.00
58295;BME280;45705;55.592;37.460;2023-01-29T05:45:56;99045.22;;;-2.46;100.00
58295;BME280;45705;55.592;37.460;2023-01-29T05:48:24;99048.31;;;-2.49;100.00
58295;BME280;45705;55.592;37.460;2023-01-29T05:50:50;99020.41;;;-2.46;100.00
58295;BME280;45705;55.592;37.460;2023-01-29T05:53:16;99038.91;;;-2.21;100.00
58295;BME280;45705;55.592;37.460;2023-01-29T05:55:47;99038.03;;;-2.15;100.00
58295;BME280;45705;55.592;37.460;2023-01-29T05:58:13;99041.22;;;-2.25;100.00
58295;BME280;45705;55.592;37.460;2023-01-29T06:00:39;99049.53;;;-2.33;100.00
58295;BME280;45705;55.592;37.460;2023-01-29T06:03:06;99045.16;;;-2.27;100.00
58295;BME280;45705;55.592;37.460;2023-01-29T06:05:31;99031.56;;;-2.38;100.00
58295;BME280;45705;55.592;37.460;2023-01-29T06:07:57;99046.97;;;-2.40;100.00
58295;BME280;45705;55.592;37.460;2023-01-29T06:10:23;99028.47;;;-2.34;100.00
58295;BME280;45705;55.592;37.460;2023-01-29T06:12:49;99051.94;;;-2.43;100.00
58295;BME280;45705;55.592;37.460;2023-01-29T06:15:15;99052.03;;;-2.50;100.00
58295;BME280;45705;55.592;37.460;2023-01-29T06:17:41;99043.78;;;-2.18;100.00
58295;BME280;45705;55.592;37.460;2023-01-29T06:20:08;99037.44;;;-2.17;100.00
58295;BME280;45705;55.592;37.460;2023-01-29T06:22:34;99043.06;;;-2.25;100.00
58295;BME280;45705;55.592;37.460;2023-01-29T06:24:59;99029.69;;;-2.07;99.91
58295;BME280;45705;55.592;37.460;2023-01-29T06:27:25;99034.28;;;-2.26;99.25
58295;BME280;45705;55.592;37.460;2023-01-29T06:29:51;99026.16;;;-2.19;98.97
58295;BME280;45705;55.592;37.460;2023-01-29T06:32:17;99023.56;;;-2.07;98.85
58295;BME280;45705;55.592;37.460;2023-01-29T06:34:42;99015.66;;;-2.14;98.95
58295;BME280;45705;55.592;37.460;2023-01-29T06:37:08;99025.28;;;-2.13;99.62
58295;BME280;45705;55.592;37.460;2023-01-29T06:39:34;99023.31;;;-2.06;99.09
58295;BME280;45705;55.592;37.460;2023-01-29T06:42:00;99022.66;;;-1.77;98.22
58295;BME280;45705;55.592;37.460;2023-01-29T06:44:26;99014.41;;;-2.00;98.57
58295;BME280;45705;55.592;37.460;2023-01-29T06:46:52;99016.22;;;-2.12;99.12
58295;BME280;45705;55.592;37.460;2023-01-29T06:49:17;99020.00;;;-1.89;98.41
58295;BME280;45705;55.592;37.460;2023-01-29T06:51:43;99025.53;;;-1.91;97.62
58295;BME280;45705;55.592;37.460;2023-01-29T06:54:09;99022.41;;;-2.00;97.87
58295;BME280;45705;55.592;37.460;2023-01-29T06:56:35;99010.97;;;-1.65;97.17
58295;BME280;45705;55.592;37.460;2023-01-29T06:59:01;99009.47;;;-1.61;95.88
58295;BME280;45705;55.592;37.460;2023-01-29T07:01:27;99014.75;;;-1.96;97.20
58295;BME280;45705;55.592;37.460;2023-01-29T07:03:53;99000.03;;;-1.99;98.25
58295;BME280;45705;55.592;37.460;2023-01-29T07:06:19;98997.47;;;-2.17;99.05
58295;BME280;45705;55.592;37.460;2023-01-29T07:08:45;98992.50;;;-2.02;99.13
58295;BME280;45705;55.592;37.460;2023-01-29T07:11:11;98985.44;;;-1.84;97.76
58295;BME280;45705;55.592;37.460;2023-01-29T07:13:37;98985.13;;;-2.00;98.37
58295;BME280;45705;55.592;37.460;2023-01-29T07:16:04;98984.19;;;-1.70;96.73
58295;BME280;45705;55.592;37.460;2023-01-29T07:18:30;98981.03;;;-1.90;97.72
58295;BME280;45705;55.592;37.460;2023-01-29T07:20:56;98992.28;;;-1.88;97.96
58295;BME280;45705;55.592;37.460;2023-01-29T07:23:23;98989.31;;;-1.80;97.78
58295;BME280;45705;55.592;37.460;2023-01-29T07:28:40;98985.13;;;-1.64;96.44
58295;BME280;45705;55.592;37.460;2023-01-29T07:31:06;98989.97;;;-1.85;97.04
58295;BME280;45705;55.592;37.460;2023-01-29T07:33:33;98989.63;;;-1.53;95.99
58295;BME280;45705;55.592;37.460;2023-01-29T07:35:58;98991.38;;;-1.59;95.99
58295;BME280;45705;55.592;37.460;2023-01-29T07:38:24;98979.78;;;-1.64;95.03
58295;BME280;45705;55.592;37.460;2023-01-29T07:40:53;98987.28;;;-1.49;94.66
58295;BME280;45705;55.592;37.460;2023-01-29T07:43:18;98984.06;;;-1.75;95.29
58295;BME280;45705;55.592;37.460;2023-01-29T07:45:45;98985.22;;;-1.71;96.05
58295;BME280;45705;55.592;37.460;2023-01-29T07:48:11;98973.66;;;-1.65;95.15
58295;BME280;45705;55.592;37.460;2023-01-29T07:50:38;98962.72;;;-1.51;93.77
58295;BME280;45705;55.592;37.460;2023-01-29T07:53:04;98968.56;;;-1.78;94.34
58295;BME280;45705;55.592;37.460;2023-01-29T07:55:30;98967.84;;;-1.85;95.60
58295;BME280;45705;55.592;37.460;2023-01-29T07:57:57;98970.16;;;-1.53;93.60
58295;BME280;45705;55.592;37.460;2023-01-29T08:00:23;98972.88;;;-1.25;92.29
58295;BME280;45705;55.592;37.460;2023-01-29T08:02:49;98960.72;;;-1.32;91.56
58295;BME280;45705;55.592;37.460;2023-01-29T08:05:15;98961.94;;;-1.11;90.50
58295;BME280;45705;55.592;37.460;2023-01-29T08:07:40;98965.25;;;-1.33;90.39
58295;BME280;45705;55.592;37.460;2023-01-29T08:10:06;98947.81;;;-1.88;92.92
58295;BME280;45705;55.592;37.460;2023-01-29T08:12:32;98962.75;;;-1.75;94.37
58295;BME280;45705;55.592;37.460;2023-01-29T08:14:58;98959.47;;;-1.53;92.36
58295;BME280;45705;55.592;37.460;2023-01-29T08:17:23;98952.16;;;-1.34;91.93
58295;BME280;45705;55.592;37.460;2023-01-29T08:23:40;98936.78;;;-1.68;90.85
58295;BME280;45705;55.592;37.460;2023-01-29T08:26:06;98940.56;;;-1.40;90.25
58295;BME280;45705;55.592;37.460;2023-01-29T08:28:32;98933.53;;;-1.06;88.68
58295;BME280;45705;55.592;37.460;2023-01-29T08:30:57;98935.06;;;-0.81;86.92
58295;BME280;45705;55.592;37.460;2023-01-29T08:33:24;98926.31;;;-0.76;86.19
58295;BME280;45705;55.592;37.460;2023-01-29T08:35:52;98933.94;;;-0.68;85.62
58295;BME280;45705;55.592;37.460;2023-01-29T08:38:17;98923.59;;;-0.65;85.21
58295;BME280;45705;55.592;37.460;2023-01-29T08:40:43;98933.75;;;-0.78;86.73
58295;BME280;45705;55.592;37.460;2023-01-29T08:43:10;98936.69;;;-1.21;88.49
58295;BME280;45705;55.592;37.460;2023-01-29T08:45:39;98934.84;;;-0.91;88.00
58295;BME280;45705;55.592;37.460;2023-01-29T08:48:05;98937.09;;;-1.00;87.27
58295;BME280;45705;55.592;37.460;2023-01-29T08:50:32;98941.09;;;-0.86;86.81
58295;BME280;45705;55.592;37.460;2023-01-29T08:53:00;98934.78;;;-0.80;86.63
58295;BME280;45705;55.592;37.460;2023-01-29T08:55:27;98929.00;;;-0.76;87.43
58295;BME280;45705;55.592;37.460;2023-01-29T08:57:54;98934.09;;;-0.75;86.09
58295;BME280;45705;55.592;37.460;2023-01-29T09:00:21;98922.22;;;-0.96;87.47
58295;BME280;45705;55.592;37.460;2023-01-29T09:02:47;98921.28;;;-0.90;86.78
58295;BME280;45705;55.592;37.460;2023-01-29T09:05:13;98913.19;;;-0.78;86.13
58295;BME280;45705;55.592;37.460;2023-01-29T09:07:38;98917.13;;;-0.52;85.02
58295;BME280;45705;55.592;37.460;2023-01-29T09:10:04;98915.50;;;-0.53;84.75
58295;BME280;45705;55.592;37.460;2023-01-29T09:12:31;98912.13;;;-0.48;83.10
58295;BME280;45705;55.592;37.460;2023-01-29T09:14:56;98911.16;;;-0.88;84.21
58295;BME280;45705;55.592;37.460;2023-01-29T09:17:22;98913.25;;;-0.90;85.32
58295;BME280;45705;55.592;37.460;2023-01-29T09:19:48;98914.22;;;-0.67;84.49
58295;BME280;45705;55.592;37.460;2023-01-29T09:22:13;98918.41;;;-0.71;83.90
58295;BME280;45705;55.592;37.460;2023-01-29T09:24:39;98907.22;;;-0.68;84.33
58295;BME280;45705;55.592;37.460;2023-01-29T09:27:05;98917.63;;;-0.55;82.50
58295;BME280;45705;55.592;37.460;2023-01-29T09:29:31;98921.16;;;-0.66;81.55
58295;BME280;45705;55.592;37.460;2023-01-29T09:31:56;98913.50;;;-0.91;84.02
58295;BME280;45705;55.592;37.460;2023-01-29T09:34:22;98904.78;;;-0.87;82.75
58295;BME280;45705;55.592;37.460;2023-01-29T09:36:48;98904.50;;;-0.73;82.23
58295;BME280;45705;55.592;37.460;2023-01-29T09:39:14;98893.44;;;-0.48;81.14
58295;BME280;45705;55.592;37.460;2023-01-29T09:44:31;98893.34;;;-0.99;82.70
58295;BME280;45705;55.592;37.460;2023-01-29T09:47:01;98890.56;;;-0.75;81.69
58295;BME280;45705;55.592;37.460;2023-01-29T09:49:33;98873.44;;;-0.46;79.98
58295;BME280;45705;55.592;37.460;2023-01-29T09:52:05;98869.69;;;-0.45;79.31
58295;BME280;45705;55.592;37.460;2023-01-29T09:54:50;98872.59;;;-0.29;79.41
58295;BME280;45705;55.592;37.460;2023-01-29T09:57:24;98871.66;;;-0.57;79.67
58295;BME280;45705;55.592;37.460;2023-01-29T09:59:52;98883.13;;;-0.73;79.83
58295;BME280;45705;55.592;37.460;2023-01-29T10:10:41;98855.38;;;-0.72;81.09
58295;BME280;45705;55.592;37.460;2023-01-29T10:14:18;98844.16;;;-0.41;80.20
58295;BME280;45705;55.592;37.460;2023-01-29T10:19:34;98852.88;;;-0.62;81.34
58295;BME280;45705;55.592;37.460;2023-01-29T10:27:13;98818.75;;;-0.60;81.48
58295;BME280;45705;55.592;37.460;2023-01-29T10:29:42;98810.16;;;-0.62;80.70
58295;BME280;45705;55.592;37.460;2023-01-29T10:32:13;98807.97;;;-0.82;82.48
58295;BME280;45705;55.592;37.460;2023-01-29T10:34:45;98803.19;;;-0.97;83.25
58295;BME280;45705;55.592;37.460;2023-01-29T10:37:25;98794.94;;;-0.78;82.33
58295;BME280;45705;55.592;37.460;2023-01-29T10:39:53;98783.44;;;-0.62;81.82
58295;BME280;45705;55.592;37.460;2023-01-29T10:42:23;98775.03;;;-0.54;81.68
58295;BME280;45705;55.592;37.460;2023-01-29T10:50:40;98772.19;;;-0.64;82.16
58295;BME280;45705;55.592;37.460;2023-01-29T11:01:57;98761.28;;;-0.46;82.04
58295;BME280;45705;55.592;37.460;2023-01-29T11:04:25;98747.34;;;-0.48;81.77
58295;BME280;45705;55.592;37.460;2023-01-29T11:06:54;98755.34;;;-0.87;83.45
58295;BME280;45705;55.592;37.460;2023-01-29T11:09:41;98743.81;;;-0.53;82.57
58295;BME280;45705;55.592;37.460;2023-01-29T11:12:28;98737.22;;;-0.68;82.25
58295;BME280;45705;55.592;37.460;2023-01-29T11:15:15;98739.13;;;-0.63;82.64
58295;BME280;45705;55.592;37.460;2023-01-29T11:18:05;98732.72;;;-0.62;82.83
58295;BME280;45705;55.592;37.460;2023-01-29T11:20:33;98727.66;;;-0.64;82.92
58295;BME280;45705;55.592;37.460;2023-01-29T11:23:00;98714.88;;;-0.78;82.86
58295;BME280;45705;55.592;37.460;2023-01-29T11:25:26;98736.94;;;-0.66;82.32
58295;BME280;45705;55.592;37.460;2023-01-29T11:27:55;98735.56;;;-0.69;83.18
58295;BME280;45705;55.592;37.460;2023-01-29T11:30:27;98731.38;;;-0.82;84.27
58295;BME280;45705;55.592;37.460;2023-01-29T11:33:18;98727.97;;;-0.60;83.47
58295;BME280;45705;55.592;37.460;2023-01-29T11:35:46;98734.47;;;-0.51;83.72
58295;BME280;45705;55.592;37.460;2023-01-29T11:40:41;98706.03;;;-0.62;82.80
58295;BME280;45705;55.592;37.460;2023-01-29T11:43:27;98725.84;;;-0.58;83.34
58295;BME280;45705;55.592;37.460;2023-01-29T11:46:00;98704.78;;;-0.54;82.97
58295;BME280;45705;55.592;37.460;2023-01-29T11:48:47;98708.50;;;-0.38;83.24
58295;BME280;45705;55.592;37.460;2023-01-29T11:51:26;98724.38;;;-0.49;83.87
58295;BME280;45705;55.592;37.460;2023-01-29T11:53:58;98721.44;;;-0.69;83.93
58295;BME280;45705;55.592;37.460;2023-01-29T11:56:33;98721.34;;;-0.91;86.05
58295;BME280;45705;55.592;37.460;2023-01-29T11:59:03;98711.16;;;-0.77;85.44
58295;BME280;45705;55.592;37.460;2023-01-29T12:01:37;98713.00;;;-0.61;85.21
58295;BME280;45705;55.592;37.460;2023-01-29T12:04:20;98706.53;;;-0.43;84.78
58295;BME280;45705;55.592;37.460;2023-01-29T12:06:48;98701.00;;;-0.58;84.39
58295;BME280;45705;55.592;37.460;2023-01-29T12:09:23;98689.84;;;-0.55;84.54
58295;BME280;45705;55.592;37.460;2023-01-29T12:11:51;98693.00;;;-0.58;85.54
58295;BME280;45705;55.592;37.460;2023-01-29T12:14:32;98702.44;;;-0.51;84.19
58295;BME280;45705;55.592;37.460;2023-01-29T12:17:00;98698.28;;;-0.42;83.73
58295;BME280;45705;55.592;37.460;2023-01-29T12:19:36;98700.41;;;-0.44;83.92
58295;BME280;45705;55.592;37.460;2023-01-29T12:22:10;98703.41;;;-0.40;84.07
58295;BME280;45705;55.592;37.460;2023-01-29T12:25:02;98699.84;;;-0.85;85.62
58295;BME280;45705;55.592;37.460;2023-01-29T12:27:40;98695.94;;;-0.60;86.30
58295;BME280;45705;55.592;37.460;2023-01-29T12:30:22;98699.19;;;-0.92;87.16
58295;BME280;45705;55.592;37.460;2023-01-29T12:35:57;98699.81;;;-0.68;87.46
58295;BME280;45705;55.592;37.460;2023-01-29T12:38:27;98698.22;;;-0.47;87.61
58295;BME280;45705;55.592;37.460;2023-01-29T12:41:03;98694.50;;;-0.46;86.43
58295;BME280;45705;55.592;37.460;2023-01-29T12:43:37;98696.69;;;-0.43;86.51
58295;BME280;45705;55.592;37.460;2023-01-29T12:46:07;98691.50;;;-0.71;87.27
58295;BME280;45705;55.592;37.460;2023-01-29T12:48:37;98693.00;;;-0.58;87.92
58295;BME280;45705;55.592;37.460;2023-01-29T12:51:09;98697.31;;;-0.74;87.41
58295;BME280;45705;55.592;37.460;2023-01-29T12:53:41;98699.03;;;-0.46;88.16
58295;BME280;45705;55.592;37.460;2023-01-29T12:56:12;98693.66;;;-0.68;88.50
58295;BME280;45705;55.592;37.460;2023-01-29T12:58:49;98694.94;;;-0.54;87.86
58295;BME280;45705;55.592;37.460;2023-01-29T13:01:36;98702.88;;;-0.59;88.54
58295;BME280;45705;55.592;37.460;2023-01-29T13:04:20;98700.63;;;-0.67;88.01
58295;BME280;45705;55.592;37.460;2023-01-29T13:07:05;98693.56;;;-0.56;88.60
58295;BME280;45705;55.592;37.460;2023-01-29T13:09:36;98680.41;;;-0.63;88.98
58295;BME280;45705;55.592;37.460;2023-01-29T13:12:16;98691.56;;;-0.66;88.88
58295;BME280;45705;55.592;37.460;2023-01-29T13:14:53;98687.28;;;-0.45;87.53
58295;BME280;45705;55.592;37.460;2023-01-29T13:17:36;98690.09;;;-0.57;88.52
58295;BME280;45705;55.592;37.460;2023-01-29T13:20:12;98686.53;;;-0.63;88.96
58295;BME280;45705;55.592;37.460;2023-01-29T13:22:42;98677.31;;;-0.72;89.80
58295;BME280;45705;55.592;37.460;2023-01-29T13:25:14;98661.31;;;-0.72;89.34
58295;BME280;45705;55.592;37.460;2023-01-29T13:27:42;98664.38;;;-0.63;89.12
58295;BME280;45705;55.592;37.460;2023-01-29T13:30:31;98677.84;;;-0.53;88.97
58295;BME280;45705;55.592;37.460;2023-01-29T13:32:59;98672.47;;;-0.58;89.79
58295;BME280;45705;55.592;37.460;2023-01-29T13:35:37;98676.31;;;-0.88;90.55
58295;BME280;45705;55.592;37.460;2023-01-29T13:38:19;98671.13;;;-0.77;91.28
58295;BME280;45705;55.592;37.460;2023-01-29T13:40:50;98663.94;;;-0.77;90.89
58295;BME280;45705;55.592;37.460;2023-01-29T13:43:19;98669.84;;;-0.92;92.66
58295;BME280;45705;55.592;37.460;2023-01-29T13:45:46;98672.19;;;-0.95;92.36
58295;BME280;45705;55.592;37.460;2023-01-29T13:48:29;98667.81;;;-0.85;92.14
58295;BME280;45705;55.592;37.460;2023-01-29T13:51:02;98662.25;;;-1.00;92.66
58295;BME280;45705;55.592;37.460;2023-01-29T13:53:40;98662.03;;;-0.98;94.55
58295;BME280;45705;55.592;37.460;2023-01-29T13:59:00;98662.03;;;-1.15;96.45
58295;BME280;45705;55.592;37.460;2023-01-29T14:04:27;98661.59;;;-0.90;95.50
58295;BME280;45705;55.592;37.460;2023-01-29T14:06:58;98648.78;;;-1.10;95.68
58295;BME280;45705;55.592;37.460;2023-01-29T14:12:03;98641.63;;;-0.88;94.58
58295;BME280;45705;55.592;37.460;2023-01-29T14:17:14;98648.72;;;-0.76;93.59
58295;BME280;45705;55.592;37.460;2023-01-29T14:20:17;98635.03;;;-0.80;93.18
58295;BME280;45705;55.592;37.460;2023-01-29T14:22:53;98637.91;;;-0.87;93.72
58295;BME280;45705;55.592;37.460;2023-01-29T14:25:26;98632.34;;;-1.02;94.77
58295;BME280;45705;55.592;37.460;2023-01-29T14:27:52;98640.50;;;-0.92;94.63
58295;BME280;45705;55.592;37.460;2023-01-29T14:30:18;98630.00;;;-0.98;95.13
58295;BME280;45705;55.592;37.460;2023-01-29T14:32:48;98637.59;;;-1.07;96.17
58295;BME280;45705;55.592;37.460;2023-01-29T14:35:24;98635.97;;;-0.91;96.05
58295;BME280;45705;55.592;37.460;2023-01-29T14:37:53;98628.00;;;-1.42;96.77
58295;BME280;45705;55.592;37.460;2023-01-29T14:40:23;98629.47;;;-1.34;97.52
58295;BME280;45705;55.592;37.460;2023-01-29T14:43:02;98633.91;;;-1.06;97.78
58295;BME280;45705;55.592;37.460;2023-01-29T14:45:32;98637.13;;;-1.04;97.23
58295;BME280;45705;55.592;37.460;2023-01-29T14:56:00;98640.03;;;-1.23;99.71
58295;BME280;45705;55.592;37.460;2023-01-29T14:58:41;98625.50;;;-1.32;99.82
58295;BME280;45705;55.592;37.460;2023-01-29T15:01:19;98632.47;;;-1.31;100.00
58295;BME280;45705;55.592;37.460;2023-01-29T15:03:49;98627.94;;;-1.47;100.00